Time;durP1;ratioP1;P1;durP2;ratioP2;P2;SDS_P1;SDS_P2;PMS_P1;PMS_P2;Temp;Humidity;BMP_temperature;BMP_pressure;BME280_temperature;BME280_humidity;BME280_pressure;Samples;Min_cycle;Max_cycle;Signal;HPM_P1;HPM_P2
2023/03/18 00:02:09;;;;;;;;;;;;;;;28.46;50.50;101065.03;5048359;28;67127;-35
2023/03/18 00:04:39;;;;;;;;;;;;;;;28.54;50.97;101078.34;5038682;27;69728;-36
2023/03/18 00:07:10;;;;;;;;;;;;;;;28.56;51.13;101072.75;5042247;28;66836;-35
2023/03/18 00:09:41;;;;;;;;;;;;;;;28.60;51.11;101069.44;5040447;28;69909;-36
2023/03/18 00:12:11;;;;;;;;;;;;;;;28.65;51.83;101080.47;5042906;28;66570;-35
2023/03/18 00:14:41;;;;;;;;;;;;;;;28.70;51.74;101074.50;5046379;28;70218;-40
2023/03/18 00:17:12;;;;;;;;;;;;;;;28.73;55.14;101079.47;5045609;28;65073;-39
2023/03/18 00:19:42;;;;;;;;;;;;;;;28.74;56.50;101075.72;5042978;28;69524;-38
2023/03/18 00:22:13;;;;;;;;;;;;;;;28.78;57.34;101077.00;5044238;28;65688;-40
2023/03/18 00:24:43;;;;;;;;;;;;;;;28.84;58.13;101084.31;5036071;28;69137;-38
2023/03/18 00:27:13;;;;;;;;;;;;;;;28.86;58.76;101082.25;5044731;28;66676;-40
2023/03/18 00:29:46;;;;;;;;;;;;;;;28.91;59.58;101082.44;5050419;28;70110;-38
2023/03/18 00:32:17;;;;;;;;;;;;;;;28.98;60.44;101081.66;5046205;28;66599;-40
2023/03/18 00:34:49;;;;;;;;;;;;;;;29.01;60.44;101092.06;5041067;28;70768;-38
2023/03/18 00:37:29;;;;;;;;;;;;;;;29.04;60.87;101091.69;5038082;28;66630;-39
2023/03/18 00:40:05;;;;;;;;;;;;;;;29.07;60.91;101088.56;5072285;27;70061;-42
2023/03/18 00:42:46;;;;;;;;;;;;;;;29.09;61.02;101094.59;5051086;28;66797;-38
2023/03/18 00:45:16;;;;;;;;;;;;;;;29.10;61.00;101090.84;5052482;28;69222;-38
2023/03/18 00:47:49;;;;;;;;;;;;;;;29.11;61.36;101092.50;5060832;27;66376;-39
2023/03/18 00:50:21;;;;;;;;;;;;;;;29.11;59.95;101104.19;5048617;28;69166;-39
2023/03/18 00:52:52;;;;;;;;;;;;;;;29.07;58.66;101102.06;5045233;28;66781;-40
2023/03/18 00:55:22;;;;;;;;;;;;;;;29.08;58.67;101101.03;5053952;28;69519;-41
2023/03/18 00:57:52;;;;;;;;;;;;;;;29.10;58.10;101104.38;5045318;28;66627;-40
2023/03/18 01:00:25;;;;;;;;;;;;;;;29.12;58.47;101105.00;5044864;28;70438;-40
2023/03/18 01:02:55;;;;;;;;;;;;;;;29.16;58.63;101111.66;5042293;28;66321;-41
2023/03/18 01:05:25;;;;;;;;;;;;;;;29.18;58.28;101110.41;5043156;28;69895;-40
2023/03/18 01:07:56;;;;;;;;;;;;;;;29.22;58.38;101121.63;5047716;28;66963;-40
2023/03/18 01:10:29;;;;;;;;;;;;;;;29.24;58.19;101124.16;5046660;28;70445;-40
2023/03/18 01:13:00;;;;;;;;;;;;;;;29.27;58.83;101115.63;5051911;28;65995;-41
2023/03/18 01:15:31;;;;;;;;;;;;;;;29.31;58.68;101125.84;5045641;28;70398;-40
2023/03/18 01:18:02;;;;;;;;;;;;;;;29.45;61.14;101123.16;5048519;27;66818;-39
2023/03/18 01:20:33;;;;;;;;;;;;;;;29.49;61.71;101129.81;5050271;27;70121;-41
2023/03/18 01:23:04;;;;;;;;;;;;;;;29.48;61.73;101130.88;5051629;28;65846;-39
2023/03/18 01:25:34;;;;;;;;;;;;;;;29.50;62.24;101129.59;5058039;27;70022;-38
2023/03/18 01:28:05;;;;;;;;;;;;;;;29.51;62.18;101135.88;5048657;28;67064;-40
2023/03/18 01:30:37;;;;;;;;;;;;;;;29.50;62.18;101134.19;5051687;28;69515;-37
2023/03/18 01:33:07;;;;;;;;;;;;;;;29.54;62.61;101140.84;5052520;28;66275;-41
2023/03/18 01:35:37;;;;;;;;;;;;;;;29.58;61.62;101142.09;5041706;28;69741;-38
2023/03/18 01:38:17;;;;;;;;;;;;;;;29.58;61.69;101136.69;5058490;27;66567;-38
2023/03/18 01:40:48;;;;;;;;;;;;;;;29.59;61.90;101138.38;5063740;27;70500;-38
2023/03/18 01:43:23;;;;;;;;;;;;;;;29.56;61.18;101139.63;5090323;27;66026;-39
2023/03/18 01:45:56;;;;;;;;;;;;;;;29.53;61.99;101144.56;5048265;28;70830;-37
2023/03/18 01:48:32;;;;;;;;;;;;;;;29.51;60.46;101141.28;5045679;28;66121;-40
2023/03/18 01:51:08;;;;;;;;;;;;;;;29.53;59.24;101137.31;5054342;28;70365;-40
2023/03/18 01:53:41;;;;;;;;;;;;;;;29.57;59.08;101135.03;5054866;27;66961;-38
2023/03/18 01:56:12;;;;;;;;;;;;;;;29.61;58.72;101141.69;5058837;28;70290;-38
2023/03/18 01:58:45;;;;;;;;;;;;;;;29.65;58.50;101142.97;5072609;27;66965;-39
2023/03/18 02:01:36;;;;;;;;;;;;;;;29.68;58.63;101147.97;5045519;28;70287;-39
2023/03/18 02:04:09;;;;;;;;;;;;;;;29.70;58.81;101145.91;5044514;28;65956;-40
2023/03/18 02:06:42;;;;;;;;;;;;;;;29.73;58.81;101150.91;5029503;27;68717;-39
2023/03/18 02:09:12;;;;;;;;;;;;;;;29.76;58.70;101147.78;5051760;28;66749;-39
2023/03/18 02:11:48;;;;;;;;;;;;;;;29.79;58.44;101146.53;5047057;27;71059;-39
2023/03/18 02:14:23;;;;;;;;;;;;;;;29.81;58.11;101150.69;5043194;28;66294;-39
2023/03/18 02:17:05;;;;;;;;;;;;;;;29.82;58.04;101155.06;5054476;27;70454;-39
2023/03/18 02:19:57;;;;;;;;;;;;;;;29.87;58.37;101156.31;5059230;27;66117;-39
2023/03/18 02:22:31;;;;;;;;;;;;;;;29.91;57.69;101162.97;5078229;27;69360;-38
2023/03/18 02:25:22;;;;;;;;;;;;;;;29.93;57.61;101155.50;5038866;28;65603;-38
2023/03/18 02:28:03;;;;;;;;;;;;;;;29.95;57.52;101164.22;5039015;28;69473;-41
2023/03/18 02:30:39;;;;;;;;;;;;;;;29.99;57.62;101170.88;5047155;28;65835;-39
2023/03/18 02:33:12;;;;;;;;;;;;;;;30.01;57.46;101172.34;5045548;28;70157;-40
2023/03/18 02:35:46;;;;;;;;;;;;;;;30.02;57.74;101165.06;5053903;28;67003;-38
2023/03/18 02:38:17;;;;;;;;;;;;;;;30.05;57.70;101164.63;5063575;27;69904;-38
2023/03/18 02:40:48;;;;;;;;;;;;;;;30.08;57.36;101166.09;5047952;28;67893;-37
2023/03/18 02:43:30;;;;;;;;;;;;;;;30.10;57.46;101167.56;5043115;28;69907;-39
2023/03/18 02:46:24;;;;;;;;;;;;;;;30.13;57.62;101156.31;5051102;28;66534;-41
2023/03/18 02:48:55;;;;;;;;;;;;;;;30.16;57.16;101169.41;5047616;28;69268;-38
2023/03/18 02:51:27;;;;;;;;;;;;;;;30.19;57.57;101158.19;5052630;28;66956;-39
2023/03/18 02:54:09;;;;;;;;;;;;;;;30.22;57.66;101157.78;5083853;27;70149;-40
2023/03/18 02:56:41;;;;;;;;;;;;;;;30.24;57.09;101153.00;5052056;27;66073;-39
2023/03/18 02:59:12;;;;;;;;;;;;;;;30.26;57.59;101156.34;5065024;27;70376;-39
2023/03/18 03:01:43;;;;;;;;;;;;;;;30.30;56.92;101151.34;5048891;28;66210;-43
2023/03/18 03:04:14;;;;;;;;;;;;;;;30.32;57.75;101148.44;5051503;28;69845;-39
2023/03/18 03:06:44;;;;;;;;;;;;;;;30.35;57.11;101148.00;5039795;28;66022;-38
2023/03/18 03:09:18;;;;;;;;;;;;;;;30.36;57.65;101139.66;5052616;28;70525;-39
2023/03/18 03:11:50;;;;;;;;;;;;;;;30.40;57.55;101140.94;5048471;27;66316;-39
2023/03/18 03:14:23;;;;;;;;;;;;;;;30.43;57.45;101136.97;5043023;27;69881;-39
2023/03/18 03:16:58;;;;;;;;;;;;;;;30.45;57.42;101134.84;5052669;28;66838;-39
2023/03/18 03:19:29;;;;;;;;;;;;;;;30.48;57.74;101138.00;5045994;28;70584;-40
2023/03/18 03:21:59;;;;;;;;;;;;;;;30.50;57.67;101129.66;5041026;27;66052;-39
2023/03/18 03:24:30;;;;;;;;;;;;;;;30.53;57.72;101129.22;5050537;27;70685;-39
2023/03/18 03:27:00;;;;;;;;;;;;;;;30.56;57.70;101125.25;5055177;27;67004;-39
2023/03/18 03:29:31;;;;;;;;;;;;;;;30.59;57.69;101132.94;5038501;28;69596;-38
2023/03/18 03:32:01;;;;;;;;;;;;;;;30.60;58.40;101129.22;5047328;28;66118;-38
2023/03/18 03:34:32;;;;;;;;;;;;;;;30.57;58.62;101133.19;5056805;27;69874;-39
2023/03/18 03:37:02;;;;;;;;;;;;;;;30.55;58.43;101127.13;5054846;28;65516;-38
2023/03/18 03:39:33;;;;;;;;;;;;;;;30.54;59.34;101120.06;5044738;28;69615;-41
2023/03/18 03:42:03;;;;;;;;;;;;;;;30.50;59.45;101121.53;5046936;27;67139;-38
2023/03/18 03:44:34;;;;;;;;;;;;;;;30.47;60.19;101128.19;5051667;28;70906;-41
2023/03/18 03:47:06;;;;;;;;;;;;;;;30.47;60.71;101117.38;5027646;28;65506;-38
2023/03/18 03:49:36;;;;;;;;;;;;;;;30.47;61.66;101113.84;5044031;27;70605;-38
2023/03/18 03:52:07;;;;;;;;;;;;;;;30.45;62.19;101116.75;5048646;28;65251;-39
2023/03/18 03:54:40;;;;;;;;;;;;;;;30.45;62.44;101110.50;5055699;27;70328;-39
2023/03/18 03:57:11;;;;;;;;;;;;;;;30.46;62.64;101098.66;5051617;28;66837;-39
2023/03/18 03:59:41;;;;;;;;;;;;;;;30.45;63.01;101092.41;5044483;27;70499;-40
2023/03/18 04:02:22;;;;;;;;;;;;;;;30.46;63.35;101085.13;5048408;28;66976;-39
2023/03/18 04:04:56;;;;;;;;;;;;;;;30.49;63.54;101084.69;5051115;28;70642;-39
2023/03/18 04:07:33;;;;;;;;;;;;;;;30.50;62.93;101080.91;5073603;28;66016;-41
2023/03/18 04:10:03;;;;;;;;;;;;;;;30.52;62.74;101086.97;5031110;27;69240;-42
2023/03/18 04:12:34;;;;;;;;;;;;;;;30.55;62.29;101067.56;5074256;27;66128;-41
2023/03/18 04:15:06;;;;;;;;;;;;;;;30.58;61.89;101067.16;5073879;27;68932;-39
2023/03/18 04:17:37;;;;;;;;;;;;;;;30.60;62.42;101065.06;5071898;27;65648;-39
2023/03/18 04:20:08;;;;;;;;;;;;;;;30.64;62.41;101066.28;5061952;27;69079;-39
2023/03/18 04:22:39;;;;;;;;;;;;;;;30.64;62.73;101063.56;5054214;27;66600;-40
2023/03/18 04:25:13;;;;;;;;;;;;;;;30.67;62.68;101054.19;5051510;28;69264;-40
2023/03/18 04:27:43;;;;;;;;;;;;;;;30.68;62.80;101045.88;5059864;28;66287;-42
2023/03/18 04:30:16;;;;;;;;;;;;;;;30.67;62.97;101044.22;5053477;28;70108;-43
2023/03/18 04:33:08;;;;;;;;;;;;;;;30.71;62.17;101034.59;5048091;28;66820;-41
2023/03/18 04:35:43;;;;;;;;;;;;;;;30.72;61.58;101035.44;5042335;28;69950;-40
2023/03/18 04:38:15;;;;;;;;;;;;;;;30.80;61.26;101029.81;5084903;27;66934;-43
2023/03/18 04:40:48;;;;;;;;;;;;;;;30.88;61.21;101024.13;5061850;27;70587;-43
2023/03/18 04:43:19;;;;;;;;;;;;;;;30.96;60.35;101014.94;5050369;28;66078;-40
2023/03/18 04:45:51;;;;;;;;;;;;;;;31.02;59.92;101003.22;5045061;27;69716;-39
2023/03/18 04:48:22;;;;;;;;;;;;;;;31.08;59.61;101001.50;5049178;28;65247;-41
2023/03/18 04:50:55;;;;;;;;;;;;;;;31.11;59.41;100991.06;5059736;28;70364;-40
2023/03/18 04:53:30;;;;;;;;;;;;;;;31.16;58.93;100988.53;5059361;27;66395;-42
2023/03/18 04:56:00;;;;;;;;;;;;;;;31.21;58.85;100984.34;5055661;28;69544;-40
2023/03/18 04:58:39;;;;;;;;;;;;;;;31.26;58.83;100984.47;5092072;27;64981;-40
2023/03/18 05:01:14;;;;;;;;;;;;;;;31.29;58.61;100968.63;5055568;28;70132;-40
2023/03/18 05:03:45;;;;;;;;;;;;;;;31.33;58.55;100961.69;5062083;27;67174;-39
2023/03/18 05:06:22;;;;;;;;;;;;;;;31.39;57.90;100960.00;5052675;28;69897;-39
2023/03/18 05:08:58;;;;;;;;;;;;;;;31.44;57.88;100957.47;5045659;27;66477;-39
2023/03/18 05:11:32;;;;;;;;;;;;;;;31.49;55.58;100944.09;5055533;28;71090;-38
2023/03/18 05:14:14;;;;;;;;;;;;;;;31.47;56.86;100945.34;5048175;28;66953;-41
2023/03/18 05:16:47;;;;;;;;;;;;;;;31.39;57.73;100949.19;5060844;27;70650;-43
2023/03/18 05:19:19;;;;;;;;;;;;;;;31.16;55.37;100934.31;5050831;28;65448;-44
2023/03/18 05:22:00;;;;;;;;;;;;;;;30.96;53.26;100933.66;5044471;28;69548;-38
2023/03/18 05:24:31;;;;;;;;;;;;;;;30.75;52.06;100931.28;5047245;28;66027;-40
2023/03/18 05:27:03;;;;;;;;;;;;;;;30.61;50.27;100931.34;5077923;27;69379;-38
2023/03/18 05:29:41;;;;;;;;;;;;;;;30.48;49.41;100926.03;5049796;28;65801;-40
2023/03/18 05:32:15;;;;;;;;;;;;;;;30.37;48.56;100918.56;5048420;28;71104;-40
2023/03/18 05:34:51;;;;;;;;;;;;;;;30.28;47.35;100910.72;5055165;28;66782;-41
2023/03/18 05:37:22;;;;;;;;;;;;;;;30.22;46.82;100922.38;5062632;27;70696;-41
2023/03/18 05:40:03;;;;;;;;;;;;;;;30.11;45.95;100912.19;5032158;28;66285;-40
2023/03/18 05:42:34;;;;;;;;;;;;;;;30.08;45.92;100898.28;5080574;27;69461;-42
2023/03/18 05:45:21;;;;;;;;;;;;;;;30.03;45.03;100890.81;5041772;28;66115;-40
2023/03/18 05:47:56;;;;;;;;;;;;;;;29.96;44.58;100890.03;5052978;28;70633;-42
2023/03/18 05:50:31;;;;;;;;;;;;;;;29.92;44.26;100886.91;5043073;28;66384;-41
2023/03/18 05:53:04;;;;;;;;;;;;;;;29.91;43.51;100879.84;5060007;28;69867;-40
2023/03/18 05:55:39;;;;;;;;;;;;;;;29.83;43.17;100875.47;5070913;27;67066;-39
2023/03/18 05:58:10;;;;;;;;;;;;;;;29.84;43.75;100870.94;5045837;28;68983;-39
2023/03/18 06:00:43;;;;;;;;;;;;;;;29.83;43.36;100863.84;5080938;27;65466;-38
2023/03/18 06:03:15;;;;;;;;;;;;;;;29.83;43.57;100847.63;5054444;28;69559;-41
2023/03/18 06:05:48;;;;;;;;;;;;;;;29.76;43.58;100850.34;5048053;28;66774;-40
2023/03/18 06:08:18;;;;;;;;;;;;;;;29.74;43.91;100838.91;5053988;28;69313;-40
2023/03/18 06:10:48;;;;;;;;;;;;;;;29.73;43.34;100831.03;5054504;27;66144;-40
2023/03/18 06:13:19;;;;;;;;;;;;;;;29.68;42.92;100823.56;5050581;27;69994;-40
2023/03/18 06:15:55;;;;;;;;;;;;;;;29.68;42.59;100820.03;5050768;28;66952;-40
2023/03/18 06:18:27;;;;;;;;;;;;;;;29.68;42.06;100817.31;5072321;27;70159;-39
2023/03/18 06:20:58;;;;;;;;;;;;;;;29.66;42.29;100804.00;5055712;28;66645;-39
2023/03/18 06:23:30;;;;;;;;;;;;;;;29.65;42.19;100796.13;5087964;27;68878;-39
2023/03/18 06:26:00;;;;;;;;;;;;;;;29.65;41.63;100796.13;5082607;27;66446;-41
2023/03/18 06:28:36;;;;;;;;;;;;;;;29.61;41.44;100790.28;5050747;28;70380;-41
2023/03/18 06:31:10;;;;;;;;;;;;;;;29.58;41.11;100785.28;5048758;28;66741;-40
2023/03/18 06:33:41;;;;;;;;;;;;;;;29.56;40.82;100792.78;5049395;27;70637;-42
2023/03/18 06:36:15;;;;;;;;;;;;;;;29.55;40.76;100786.56;5063110;27;66774;-40
2023/03/18 06:38:49;;;;;;;;;;;;;;;29.01;40.47;100706.69;5047356;28;70254;-38
2023/03/18 06:41:22;;;;;;;;;;;;;;;29.50;40.90;100780.13;5055240;27;66971;-40
2023/03/18 06:44:12;;;;;;;;;;;;;;;29.47;40.74;100775.16;5043318;28;70250;-38
2023/03/18 06:46:42;;;;;;;;;;;;;;;29.46;40.11;100765.41;5058701;27;66996;-41
2023/03/18 06:49:14;;;;;;;;;;;;;;;29.45;40.45;100769.97;5050165;28;70499;-39
2023/03/18 06:51:51;;;;;;;;;;;;;;;29.49;40.68;100759.56;5047740;28;66954;-39
2023/03/18 06:54:21;;;;;;;;;;;;;;;29.67;41.43;100767.00;5050969;28;69472;-38
2023/03/18 06:56:51;;;;;;;;;;;;;;;29.83;41.74;100764.63;5056246;27;66140;-41
2023/03/18 06:59:22;;;;;;;;;;;;;;;29.98;41.90;100758.13;5048190;28;70217;-41
2023/03/18 07:01:53;;;;;;;;;;;;;;;30.16;42.84;100755.47;5046215;27;66612;-38
2023/03/18 07:04:24;;;;;;;;;;;;;;;30.26;42.85;100750.47;5054162;28;70016;-39
2023/03/18 07:06:55;;;;;;;;;;;;;;;30.40;43.34;100750.38;5048688;27;66284;-39
2023/03/18 07:09:26;;;;;;;;;;;;;;;30.53;43.67;100754.81;5077889;27;68570;-40
2023/03/18 07:12:00;;;;;;;;;;;;;;;30.63;43.93;100734.31;5070989;27;66032;-41
2023/03/18 07:14:31;;;;;;;;;;;;;;;30.71;44.30;100741.34;5061289;27;69729;-39
2023/03/18 07:17:02;;;;;;;;;;;;;;;30.80;44.54;100734.63;5043840;28;67076;-41
2023/03/18 07:19:33;;;;;;;;;;;;;;;30.89;44.79;100727.03;5048440;28;70228;-38
2023/03/18 07:22:04;;;;;;;;;;;;;;;30.94;44.85;100728.00;5050307;28;66262;-43
2023/03/18 07:24:35;;;;;;;;;;;;;;;31.02;45.65;100720.66;5045907;27;70530;-39
2023/03/18 07:27:05;;;;;;;;;;;;;;;31.09;45.73;100711.41;5048396;27;66817;-39
2023/03/18 07:29:36;;;;;;;;;;;;;;;31.16;45.82;100711.31;5054124;28;69081;-38
2023/03/18 07:32:06;;;;;;;;;;;;;;;31.23;45.75;100713.94;5049072;28;66622;-40
2023/03/18 07:34:36;;;;;;;;;;;;;;;31.29;46.16;100704.91;5048480;28;69420;-38
2023/03/18 07:37:06;;;;;;;;;;;;;;;31.37;46.67;100704.63;5038020;28;65360;-38
2023/03/18 07:39:37;;;;;;;;;;;;;;;31.42;46.98;100707.47;5046478;28;69992;-38
2023/03/18 07:42:08;;;;;;;;;;;;;;;31.50;49.16;100698.22;5041247;28;66313;-41
2023/03/18 07:44:44;;;;;;;;;;;;;;;31.58;50.46;100693.28;5035917;28;69143;-40
2023/03/18 07:47:14;;;;;;;;;;;;;;;31.67;50.96;100695.69;5043234;28;66541;-40
2023/03/18 07:49:44;;;;;;;;;;;;;;;31.76;51.52;100688.88;5047671;28;70554;-40
2023/03/18 07:52:14;;;;;;;;;;;;;;;31.81;52.05;100686.28;5041412;28;65213;-38
2023/03/18 07:54:45;;;;;;;;;;;;;;;31.88;52.07;100687.03;5045227;28;70283;-39
2023/03/18 07:57:15;;;;;;;;;;;;;;;31.93;52.14;100687.19;5041889;28;66542;-41
2023/03/18 07:59:46;;;;;;;;;;;;;;;31.97;52.57;100674.81;5051971;27;69787;-41
2023/03/18 08:02:16;;;;;;;;;;;;;;;32.01;52.54;100684.16;5051682;28;66185;-40
2023/03/18 08:04:46;;;;;;;;;;;;;;;32.07;52.77;100695.09;5045363;27;69430;-40
2023/03/18 08:07:17;;;;;;;;;;;;;;;32.13;52.96;100696.91;5039197;28;66220;-39
2023/03/18 08:09:49;;;;;;;;;;;;;;;32.22;52.79;100681.94;5040352;28;70325;-39
2023/03/18 08:12:19;;;;;;;;;;;;;;;32.26;52.99;100686.66;5056553;28;66778;-40
2023/03/18 08:14:49;;;;;;;;;;;;;;;32.31;53.17;100679.69;5052727;28;69776;-39
2023/03/18 08:17:20;;;;;;;;;;;;;;;32.34;53.03;100674.63;5044088;28;65670;-38
2023/03/18 08:19:50;;;;;;;;;;;;;;;32.43;52.73;100673.22;5051310;28;69147;-38
2023/03/18 08:22:22;;;;;;;;;;;;;;;32.52;52.26;100670.19;5043124;28;65645;-38
2023/03/18 08:24:53;;;;;;;;;;;;;;;32.56;52.51;100672.16;5046998;27;69887;-39
2023/03/18 08:27:24;;;;;;;;;;;;;;;32.60;52.65;100672.53;5048731;28;66678;-38
2023/03/18 08:29:54;;;;;;;;;;;;;;;32.65;53.27;100669.91;5041170;28;70449;-39
2023/03/18 08:32:26;;;;;;;;;;;;;;;32.69;53.60;100665.69;5052126;28;66014;-39
2023/03/18 08:34:56;;;;;;;;;;;;;;;32.71;53.27;100674.44;5047730;28;70065;-38
2023/03/18 08:37:27;;;;;;;;;;;;;;;32.76;52.97;100671.78;5047578;28;67101;-40
2023/03/18 08:39:57;;;;;;;;;;;;;;;32.78;53.06;100680.53;5048921;28;70252;-42
2023/03/18 08:42:29;;;;;;;;;;;;;;;32.83;52.81;100680.66;5049832;28;66723;-42
2023/03/18 08:44:59;;;;;;;;;;;;;;;32.90;52.51;100688.66;5079827;27;70149;-37
2023/03/18 08:47:30;;;;;;;;;;;;;;;32.93;52.28;100688.19;5045759;28;65644;-42
2023/03/18 08:50:01;;;;;;;;;;;;;;;32.96;52.29;100692.31;5043907;28;69297;-39
2023/03/18 08:52:32;;;;;;;;;;;;;;;32.98;52.24;100690.19;5047459;28;65416;-39
2023/03/18 08:55:02;;;;;;;;;;;;;;;33.01;52.38;100692.47;5062476;27;69822;-39
2023/03/18 08:57:33;;;;;;;;;;;;;;;33.07;52.28;100694.22;5045850;28;65428;-40
2023/03/18 09:00:04;;;;;;;;;;;;;;;33.09;52.84;100694.81;5051880;28;69094;-40
2023/03/18 09:02:35;;;;;;;;;;;;;;;33.13;52.38;100687.84;5037535;28;67077;-39
2023/03/18 09:05:05;;;;;;;;;;;;;;;33.13;51.20;100704.16;5043478;28;69464;-37
2023/03/18 09:07:35;;;;;;;;;;;;;;;33.13;51.63;100699.53;5054001;28;67089;-38
2023/03/18 09:10:06;;;;;;;;;;;;;;;33.18;51.60;100696.06;5047678;27;70573;-39
2023/03/18 09:12:36;;;;;;;;;;;;;;;33.19;51.79;100694.22;5049250;28;67031;-37
2023/03/18 09:15:07;;;;;;;;;;;;;;;33.21;51.74;100692.91;5046623;27;70434;-39
2023/03/18 09:17:40;;;;;;;;;;;;;;;33.22;51.83;100699.97;5053950;28;66615;-41
2023/03/18 09:20:27;;;;;;;;;;;;;;;33.24;53.19;100695.13;5050813;27;69774;-41
2023/03/18 09:22:58;;;;;;;;;;;;;;;33.23;52.70;100696.19;5046823;27;65773;-41
2023/03/18 09:25:28;;;;;;;;;;;;;;;33.19;53.38;100697.75;5046693;27;69947;-43
2023/03/18 09:27:59;;;;;;;;;;;;;;;33.19;52.49;100705.09;5047964;28;66191;-39
2023/03/18 09:30:30;;;;;;;;;;;;;;;33.17;52.92;100705.31;5045354;28;69854;-41
2023/03/18 09:33:00;;;;;;;;;;;;;;;33.17;51.42;100710.75;5043171;28;67312;-37
2023/03/18 09:35:31;;;;;;;;;;;;;;;33.14;52.04;100705.78;5052842;28;69641;-39
2023/03/18 09:38:02;;;;;;;;;;;;;;;33.12;51.58;100708.75;5049630;28;66974;-38
2023/03/18 09:40:36;;;;;;;;;;;;;;;33.09;51.77;100703.78;5057799;28;71140;-39
2023/03/18 09:43:09;;;;;;;;;;;;;;;33.08;51.11;100714.91;5056495;28;66376;-40
2023/03/18 09:45:59;;;;;;;;;;;;;;;33.06;50.45;100709.69;5060454;27;69861;-40
2023/03/18 09:48:42;;;;;;;;;;;;;;;33.05;51.02;100716.22;5048763;28;66547;-40
2023/03/18 09:51:38;;;;;;;;;;;;;;;33.03;50.63;100709.38;5042260;28;69862;-40
2023/03/18 09:54:14;;;;;;;;;;;;;;;32.99;50.57;100719.00;5050651;28;66584;-39
2023/03/18 09:56:45;;;;;;;;;;;;;;;32.99;50.82;100724.44;5056252;28;69464;-42
2023/03/18 09:59:23;;;;;;;;;;;;;;;32.97;50.03;100713.00;5084194;27;66397;-40
2023/03/18 10:01:54;;;;;;;;;;;;;;;32.98;50.16;100720.09;5045905;28;68445;-41
2023/03/18 10:04:40;;;;;;;;;;;;;;;32.95;49.51;100724.09;5050436;28;65417;-38
2023/03/18 10:07:13;;;;;;;;;;;;;;;32.91;49.34;100729.19;5047583;28;70518;-40
2023/03/18 10:09:50;;;;;;;;;;;;;;;32.91;49.09;100734.63;5050429;27;66719;-40
2023/03/18 10:12:27;;;;;;;;;;;;;;;32.88;49.25;100732.41;5046415;27;70565;-43
2023/03/18 10:15:15;;;;;;;;;;;;;;;32.89;49.38;100736.75;5048026;28;66078;-42
2023/03/18 10:18:21;;;;;;;;;;;;;;;32.86;49.33;100737.22;5045545;27;70389;-41
2023/03/18 10:21:09;;;;;;;;;;;;;;;32.87;49.18;100744.31;5062357;28;65280;-42
2023/03/18 10:24:01;;;;;;;;;;;;;;;32.85;49.54;100757.31;5043420;28;70715;-40
2023/03/18 10:26:32;;;;;;;;;;;;;;;32.85;49.32;100757.31;5046953;28;66481;-37
2023/03/18 10:29:20;;;;;;;;;;;;;;;32.88;49.48;100756.84;5046361;28;69091;-38
2023/03/18 10:31:53;;;;;;;;;;;;;;;32.81;49.86;100750.69;5046065;27;65444;-38
2023/03/18 10:34:30;;;;;;;;;;;;;;;32.81;50.11;100766.16;5050297;28;70681;-39
2023/03/18 10:37:00;;;;;;;;;;;;;;;32.75;49.94;100762.50;5047689;28;66264;-41
2023/03/18 10:39:32;;;;;;;;;;;;;;;32.75;50.36;100767.94;5042417;28;70412;-40
2023/03/18 10:42:21;;;;;;;;;;;;;;;32.72;50.42;100773.84;5050700;28;66439;-39
2023/03/18 10:44:53;;;;;;;;;;;;;;;32.74;50.38;100770.91;5052768;28;70786;-43
2023/03/18 10:47:27;;;;;;;;;;;;;;;32.74;51.14;100760.88;5052114;28;66493;-41
2023/03/18 10:50:05;;;;;;;;;;;;;;;32.79;51.60;100768.28;5044468;27;69682;-39
2023/03/18 10:52:45;;;;;;;;;;;;;;;32.79;51.95;100776.44;5054472;28;66943;-42
2023/03/18 10:55:17;;;;;;;;;;;;;;;32.81;52.08;100775.13;5048288;28;69542;-43
2023/03/18 10:57:48;;;;;;;;;;;;;;;32.78;52.27;100778.31;5050551;28;65710;-44
2023/03/18 11:00:27;;;;;;;;;;;;;;;32.81;52.41;100772.41;5046047;28;69358;-42
2023/03/18 11:02:58;;;;;;;;;;;;;;;32.81;52.30;100772.41;5047147;28;66638;-42
2023/03/18 11:05:34;;;;;;;;;;;;;;;32.78;52.65;100783.75;5046436;27;70257;-43
2023/03/18 11:08:07;;;;;;;;;;;;;;;32.79;52.65;100784.59;5045554;27;66001;-44
2023/03/18 11:10:44;;;;;;;;;;;;;;;32.76;52.60;100783.16;5049842;28;69734;-41
2023/03/18 11:13:18;;;;;;;;;;;;;;;32.74;52.66;100790.75;5044335;28;66190;-39
2023/03/18 11:15:50;;;;;;;;;;;;;;;32.72;52.61;100795.56;5043991;28;70101;-42
2023/03/18 11:18:22;;;;;;;;;;;;;;;32.72;52.50;100801.00;5048067;28;66385;-39
2023/03/18 11:20:59;;;;;;;;;;;;;;;32.72;52.86;100795.56;5042509;27;70589;-40
2023/03/18 11:23:47;;;;;;;;;;;;;;;32.71;53.18;100799.38;5052697;27;66848;-42
2023/03/18 11:26:22;;;;;;;;;;;;;;;32.70;53.82;100814.81;5042114;28;69897;-40
2023/03/18 11:28:57;;;;;;;;;;;;;;;32.74;54.07;100812.47;5042856;28;65744;-43
2023/03/18 11:31:27;;;;;;;;;;;;;;;32.73;54.82;100818.94;5038998;28;69862;-41
2023/03/18 11:33:58;;;;;;;;;;;;;;;32.71;55.68;100821.91;5041632;28;67094;-39
2023/03/18 11:36:31;;;;;;;;;;;;;;;32.73;56.35;100818.94;5045624;28;70139;-40
2023/03/18 11:39:05;;;;;;;;;;;;;;;32.74;56.54;100833.38;5045149;27;66761;-41
2023/03/18 11:41:36;;;;;;;;;;;;;;;32.71;56.36;100834.69;5052155;28;69857;-39
2023/03/18 11:44:16;;;;;;;;;;;;;;;32.73;56.69;100840.69;5047810;27;65092;-41
2023/03/18 11:46:53;;;;;;;;;;;;;;;32.63;55.89;100846.69;5047190;28;70344;-39
2023/03/18 11:49:25;;;;;;;;;;;;;;;32.76;55.37;100851.06;5042603;28;66147;-38
2023/03/18 11:51:58;;;;;;;;;;;;;;;32.84;55.01;100858.88;5048512;28;71017;-40
2023/03/18 11:54:37;;;;;;;;;;;;;;;32.91;54.12;100854.19;5042949;28;66048;-40
2023/03/18 11:57:18;;;;;;;;;;;;;;;32.97;53.80;100857.03;5041164;28;70550;-41
2023/03/18 11:59:51;;;;;;;;;;;;;;;32.99;53.66;100846.72;5048773;28;66449;-39
2023/03/18 12:02:41;;;;;;;;;;;;;;;33.01;53.16;100852.78;5047165;28;70321;-40
2023/03/18 12:05:39;;;;;;;;;;;;;;;33.03;52.97;100870.50;5049243;28;66418;-40
2023/03/18 12:08:21;;;;;;;;;;;;;;;32.87;53.12;100849.44;5039868;28;69779;-38
2023/03/18 12:11:13;;;;;;;;;;;;;;;33.03;52.82;100867.78;5047651;28;66900;-40
2023/03/18 12:13:47;;;;;;;;;;;;;;;33.03;52.74;100877.84;5040153;27;70282;-42
2023/03/18 12:16:17;;;;;;;;;;;;;;;33.02;52.61;100889.78;5023784;28;66208;-41
2023/03/18 12:19:07;;;;;;;;;;;;;;;33.00;52.51;100890.00;5052003;28;70359;-42
2023/03/18 12:21:50;;;;;;;;;;;;;;;32.99;52.47;100888.34;5042899;27;66238;-39
2023/03/18 12:24:29;;;;;;;;;;;;;;;32.97;52.25;100890.44;5052940;27;70645;-38
2023/03/18 12:27:07;;;;;;;;;;;;;;;32.97;52.26;100897.78;5041802;28;65343;-41
2023/03/18 12:29:50;;;;;;;;;;;;;;;32.94;52.24;100907.22;5038631;28;69453;-41
2023/03/18 12:32:30;;;;;;;;;;;;;;;32.86;52.88;100905.66;5077207;27;66114;-40
2023/03/18 12:35:03;;;;;;;;;;;;;;;32.69;54.88;100908.22;5045456;28;70394;-39
2023/03/18 12:37:36;;;;;;;;;;;;;;;32.60;55.55;100917.78;5051587;28;66012;-38
2023/03/18 12:40:24;;;;;;;;;;;;;;;32.50;56.42;100922.94;5049713;28;70563;-39
2023/03/18 12:43:18;;;;;;;;;;;;;;;31.90;56.29;100853.09;5043983;28;65135;-39
2023/03/18 12:45:51;;;;;;;;;;;;;;;32.15;55.07;100937.16;5051884;28;70270;-40
2023/03/18 12:48:25;;;;;;;;;;;;;;;31.99;55.01;100937.75;5045982;28;66072;-37
2023/03/18 12:51:14;;;;;;;;;;;;;;;31.84;55.40;100946.22;5046598;27;70529;-40
2023/03/18 12:53:47;;;;;;;;;;;;;;;31.73;55.00;100955.09;5046899;28;66178;-38
2023/03/18 12:56:20;;;;;;;;;;;;;;;31.68;55.98;100946.81;5045053;28;70482;-40
2023/03/18 12:58:53;;;;;;;;;;;;;;;31.71;56.91;100946.38;5047148;28;66753;-42
2023/03/18 13:01:31;;;;;;;;;;;;;;;31.76;56.92;100955.50;5044998;28;69491;-40
2023/03/18 13:04:03;;;;;;;;;;;;;;;31.80;57.11;100958.59;5043731;28;66452;-39
2023/03/18 13:06:42;;;;;;;;;;;;;;;31.85;57.60;100952.50;5050143;28;69914;-39
2023/03/18 13:09:45;;;;;;;;;;;;;;;31.85;57.83;100952.50;5043161;27;66485;-41
2023/03/18 13:12:23;;;;;;;;;;;;;;;31.87;57.87;100961.22;5047289;28;70298;-41